Main page
METAR-TAF:

METAR-TAF

Airports :

Jersey Airport

Jersey,

latitude: 49-13N, longitude: 002-12W, elevation: 84 m

Current weather observation

The report was made 34 minutes ago, at 07:20 UTC
Wind 15 kt from the West
Temperature 16°C
Humidity 100%
Pressure 1006 hPa
Visibility 10 km or more
Few clouds at a height of 700 ft
Scattered clouds at a height of 1100 ft

METAR: EGJJ 180720Z 28015KT 9999 FEW007 SCT011 16/16 Q1006

Time: 08:54 (07:54 UTC)

Forecast

The report was made 2 hours and 54 minutes ago, at 05:00 UTC
Forecast valid from 18 at 06 UTC to 18 at 15 UTC
Wind 9 kt from the West
Visibility 10 km or more
Few clouds at a height of 800 ft
Scattered clouds at a height of 1500 ft
Probability 30% :
Temporary
from 18 at 06 UTC to 18 at 10 UTC
Visibility: 7000 m
Broken clouds at a height of 1000 ft
rain showers
Becoming
from 18 at 09 UTC to 18 at 11 UTC
Wind 19 kt from the West

TAF: EGJJ 180500Z 1806/1815 28009KT 9999 FEW008 SCT015 PROB30 TEMPO 1806/1810 7000 SHRA BKN010 BECMG 1809/1811 28019KT

Weather observations and forecasts of more than 4000 airports (METAR and TAF reports).

The available stations are represented by yellow and red dots on the map.

Hover mouse over dot to see the name of the station.

Then click to see weather observations and forecasts.

To change the map : click on the green buttons with a black cross to zoom in, on the green button with a dash to zoom out, or on the green arrows for adjacent maps.


METAR-TAF: